Pine Lake, Georgia
Current Conditions -  °F | °C
As of 5:53 AM on Thursday 27 Nov 2014 (Local Time) from KPDK Reporting Station
Broken Clouds Broken Clouds  
Wind Chill:   Ceiling: 3500
Heat Index:   Visibility: 10mi
Dew Point: -2°   Wind: 6mph
Humidity: 65%   Direction: 260°W
Pressure: 30.14"   Gusts: NA
Location:  33.79°N, 84.21°W
Report Text: KPDK 271053Z AUTO 26005KT 10SM BKN035 04/M02 A3014 RMK AO2 SLP215 T00441017
Loading
Personal Weather Stations






























Interactive Weather Map New forecast layout! Learn more

10-Day Weather Forecast

Advertisements
Track Severe Weather on mobile